Henry Post Army Air Field (Fort Sill)
KFSI : now visible

Airfield :











YOU CAN JOIN US ON...

 
LOGIN :

Register | Disclaimer

   EN    FR    IT 

 









Legend :    VFR   Marginal VFR   IFR   Intensive IFR   Very Intensive IFR
Visi :
Ceiling :
>= 8 km
>= 3000ft
5 to 8 km
1000 to 3000 ft
1500m to 5 km
500 to 1000 ft
800 to 1500m
200 to 500 ft
< 800m
< 200 ft
Symbols :   Thunderstorms  Fog  Heavy snow  Heavy precipitations  Wind > 20 kt






- Airport Elevation : 1189 ft


KFSI - Henry Post Army Air Field (Fort Sill)

CURRENT METAR :
  • 151611Z AUTO 36012KT 3SM BR OVC003 04/04 A2980 RMK AO2 SLP095

EXPIRED METARs :
  • 151556Z AUTO 36010KT 2 1/4SM BR OVC003 04/04 A2980 RMK AO2 SLP095 T00390039
  • 151546Z AUTO 36010KT 2SM BR OVC003 04/04 A2979 RMK AO2 SLP092
  • 151521Z AUTO 01009KT 1 1/2SM BR OVC003 04/04 A2976 RMK AO2 SLP082
  • 151456Z AUTO 01009KT 1 1/4SM BR OVC003 03/03 A2975 RMK AO2 SLP078 T00310031 52014
  • 151441Z AUTO 01010KT 1 3/8SM BR OVC003 03/03 A2975 RMK AO2 SLP078
  • 151426Z AUTO 01009KT 1 5/8SM BR OVC003 03/03 A2974 RMK AO2 SLP075
  • 151401Z AUTO 02010KT 2 3/4SM BR OVC004 03/03 A2973 RMK AO2 SLP071

Expired Forecast.



MET'MAP, your aeronautical weather chart ! - Copyright ORBIFLY December 2007 - Disclaimer

ORBIFLY MET'MAP TEAM :

Programming & Development : Alexandra Zaïnal
Concept & original design : Baudouin d'Aumeries
Assistance for programming : Marc-Olivier Méhu
Technical & hardware support : Manuel Goepfert

Contact : metmap@orbifly.com




SOURCES & CREDITS :

   NOAA       Earth
Advisory